Time;durP1;ratioP1;P1;durP2;ratioP2;P2;SDS_P1;SDS_P2;PMS_P1;PMS_P2;Temp;Humidity;BMP_temperature;BMP_pressure;BME280_temperature;BME280_humidity;BME280_pressure;Samples;Min_cycle;Max_cycle;Signal;HPM_P1;HPM_P2
2022/11/08 00:01:40;;;;;;;8.65;2.83;;;13.10;99.90;;;;;;5077576;28;20051;-85
2022/11/08 00:04:13;;;;;;;9.57;3.05;;;13.10;99.90;;;;;;5059127;28;20047;-85
2022/11/08 00:14:52;;;;;;;11.20;2.80;;;13.00;99.90;;;;;;5077664;28;20162;-86
2022/11/08 00:17:18;;;;;;;9.93;3.10;;;13.10;99.90;;;;;;5074284;28;20547;-85
2022/11/08 00:19:44;;;;;;;9.07;2.95;;;13.10;99.90;;;;;;5058006;28;20098;-85
2022/11/08 00:22:13;;;;;;;10.88;2.53;;;13.10;99.90;;;;;;5091641;28;20080;-86
2022/11/08 00:24:38;;;;;;;12.13;2.72;;;13.10;99.90;;;;;;5074037;28;20112;-85
2022/11/08 00:27:12;;;;;;;8.05;2.50;;;13.10;99.90;;;;;;5057846;28;20496;-85
2022/11/08 00:29:37;;;;;;;6.38;2.33;;;13.10;99.90;;;;;;5098808;28;20039;-85
2022/11/08 00:32:04;;;;;;;10.02;3.25;;;13.10;99.90;;;;;;5091803;28;20079;-86
2022/11/08 00:34:31;;;;;;;6.72;2.53;;;13.10;99.90;;;;;;5074542;28;20048;-85
2022/11/08 00:36:57;;;;;;;13.25;3.88;;;13.00;99.90;;;;;;5041475;28;20143;-86
2022/11/08 00:39:23;;;;;;;11.18;3.00;;;13.10;99.90;;;;;;5057928;28;20122;-85
2022/11/08 00:41:48;;;;;;;12.02;3.20;;;13.10;99.90;;;;;;5074342;28;20048;-85
2022/11/08 00:44:14;;;;;;;7.40;2.60;;;13.00;99.90;;;;;;5085700;28;20057;-85
2022/11/08 00:46:40;;;;;;;9.43;2.58;;;13.00;99.90;;;;;;5115619;28;20043;-85
2022/11/08 00:49:06;;;;;;;7.53;2.80;;;13.00;99.90;;;;;;5081415;28;20095;-85
2022/11/08 00:51:32;;;;;;;10.70;2.45;;;13.10;99.90;;;;;;5069396;28;20056;-86
2022/11/08 00:53:57;;;;;;;9.88;2.53;;;13.00;99.90;;;;;;5041688;28;20387;-85
2022/11/08 00:56:23;;;;;;;13.68;2.90;;;13.00;99.90;;;;;;5074477;28;20583;-85
2022/11/08 00:58:49;;;;;;;11.32;2.53;;;13.00;99.90;;;;;;5090884;28;20132;-85
2022/11/08 01:01:16;;;;;;;15.38;3.22;;;13.00;99.90;;;;;;5076302;28;20051;-85
2022/11/08 01:03:42;;;;;;;9.95;2.85;;;12.90;99.90;;;;;;5062166;28;20047;-85
2022/11/08 01:06:09;;;;;;;12.70;2.63;;;12.80;99.90;;;;;;5062616;28;20048;-86
2022/11/08 01:08:34;;;;;;;9.40;2.75;;;12.70;99.90;;;;;;5078164;28;20050;-86
2022/11/08 01:11:02;;;;;;;12.95;2.55;;;12.70;99.90;;;;;;5078037;28;20484;-85
2022/11/08 01:13:27;;;;;;;12.55;3.15;;;12.70;99.90;;;;;;5071160;28;20102;-86
2022/11/08 01:15:53;;;;;;;12.85;3.53;;;12.70;99.90;;;;;;5064983;28;20435;-86
2022/11/08 01:18:19;;;;;;;11.45;2.70;;;12.60;99.90;;;;;;5098695;28;20065;-85
2022/11/08 01:20:46;;;;;;;7.30;2.45;;;12.60;99.90;;;;;;5064736;28;20048;-85
2022/11/08 01:23:12;;;;;;;5.47;2.78;;;12.50;99.90;;;;;;5082055;28;20051;-85
2022/11/08 01:25:42;;;;;;;8.13;2.55;;;12.50;99.90;;;;;;5098494;28;20062;-86
2022/11/08 01:28:08;;;;;;;9.40;2.75;;;12.40;99.90;;;;;;5082550;28;20090;-85
2022/11/08 01:30:41;;;;;;;8.00;2.35;;;12.40;99.90;;;;;;5081256;28;20086;-85
2022/11/08 01:33:06;;;;;;;9.90;2.65;;;12.40;99.90;;;;;;5081546;28;20047;-85
2022/11/08 01:35:32;;;;;;;9.50;2.85;;;12.40;99.90;;;;;;5081584;28;20048;-85
2022/11/08 01:37:59;;;;;;;10.35;3.15;;;12.40;99.90;;;;;;5115276;28;20514;-85
2022/11/08 01:40:25;;;;;;;7.07;2.45;;;12.30;99.90;;;;;;5065016;28;20063;-86
2022/11/08 01:42:51;;;;;;;8.32;2.42;;;12.30;99.90;;;;;;5081349;28;20086;-85
2022/11/08 01:45:55;;;;;;;6.85;2.63;;;12.20;99.90;;;;;;5081063;28;20059;-85
2022/11/08 01:48:22;;;;;;;6.30;2.33;;;12.20;99.90;;;;;;5138801;28;20047;-84
2022/11/08 01:50:48;;;;;;;10.40;2.75;;;12.10;99.90;;;;;;5113878;28;20061;-85
2022/11/08 01:53:13;;;;;;;7.50;2.47;;;12.10;99.90;;;;;;5082058;28;20044;-85
2022/11/08 01:55:39;;;;;;;6.80;2.88;;;12.20;99.90;;;;;;5098848;28;20052;-84
2022/11/08 01:58:09;;;;;;;9.35;3.88;;;12.20;99.90;;;;;;5074410;28;20111;-84
2022/11/08 02:00:36;;;;;;;5.10;2.33;;;12.20;99.90;;;;;;5083842;28;20047;-85
2022/11/08 02:03:02;;;;;;;8.50;2.80;;;12.20;99.90;;;;;;5098907;28;20031;-85
2022/11/08 02:05:28;;;;;;;11.98;2.72;;;12.20;99.90;;;;;;5122202;28;20028;-84
2022/11/08 02:08:13;;;;;;;8.32;2.58;;;12.20;99.90;;;;;;5138998;28;20032;-83
2022/11/08 02:10:40;;;;;;;10.45;3.55;;;12.10;99.90;;;;;;5119090;28;20472;-84
2022/11/08 02:13:11;;;;;;;8.80;2.60;;;12.10;99.90;;;;;;5063140;28;20050;-85
2022/11/08 02:15:37;;;;;;;10.95;2.92;;;12.00;99.90;;;;;;5080943;28;20043;-85
2022/11/08 02:18:03;;;;;;;8.45;2.70;;;12.00;99.90;;;;;;5097023;28;20095;-84
2022/11/08 02:20:28;;;;;;;10.55;3.08;;;11.90;99.90;;;;;;5114651;28;20047;-84
2022/11/08 02:23:28;;;;;;;9.75;2.58;;;11.90;99.90;;;;;;5097348;28;20073;-85
2022/11/08 02:25:54;;;;;;;6.82;2.67;;;12.00;99.90;;;;;;5097073;28;20139;-84
2022/11/08 02:28:20;;;;;;;6.97;3.17;;;11.90;99.90;;;;;;5100043;28;20475;-85
2022/11/08 02:30:45;;;;;;;11.70;3.13;;;11.90;99.90;;;;;;5099929;28;20458;-84
2022/11/08 02:33:21;;;;;;;8.52;3.03;;;11.90;99.90;;;;;;5114489;28;20103;-84
2022/11/08 02:35:52;;;;;;;11.85;3.38;;;11.90;99.90;;;;;;5096709;28;20601;-85
2022/11/08 02:38:18;;;;;;;9.43;3.35;;;11.80;99.90;;;;;;5063128;28;20549;-85
2022/11/08 02:40:48;;;;;;;10.05;2.83;;;11.80;99.90;;;;;;5079842;28;20046;-84
2022/11/08 02:43:14;;;;;;;9.82;3.15;;;11.80;99.90;;;;;;5096554;28;20103;-84
2022/11/08 02:45:39;;;;;;;10.10;3.50;;;11.90;99.90;;;;;;5080134;28;20513;-84
2022/11/08 02:48:05;;;;;;;10.07;3.35;;;11.80;99.90;;;;;;5096471;28;20044;-85
2022/11/08 02:50:31;;;;;;;11.25;2.90;;;11.70;99.90;;;;;;5079751;28;20047;-84
2022/11/08 02:52:57;;;;;;;9.75;2.70;;;11.70;99.90;;;;;;5062955;28;20058;-84
2022/11/08 02:55:22;;;;;;;10.85;2.92;;;11.70;99.90;;;;;;5113141;28;20048;-85
2022/11/08 02:57:48;;;;;;;12.60;3.70;;;11.70;99.90;;;;;;5079056;28;20051;-84
2022/11/08 03:00:14;;;;;;;10.10;3.28;;;11.70;99.90;;;;;;5113505;28;20048;-84
2022/11/08 03:02:40;;;;;;;11.55;3.22;;;11.70;99.90;;;;;;5113570;28;20134;-85
2022/11/08 03:05:06;;;;;;;9.32;3.03;;;11.70;99.90;;;;;;5064457;28;20055;-84
2022/11/08 03:07:31;;;;;;;8.95;2.95;;;11.70;99.90;;;;;;5104205;28;20088;-84
2022/11/08 03:09:57;;;;;;;7.95;3.00;;;11.70;99.90;;;;;;5112422;28;20548;-85
2022/11/08 03:12:22;;;;;;;8.02;2.65;;;11.60;99.90;;;;;;5097057;28;20051;-86
2022/11/08 03:14:48;;;;;;;9.50;3.03;;;11.70;99.90;;;;;;5114079;28;20043;-86
2022/11/08 03:17:14;;;;;;;11.77;3.22;;;11.60;99.90;;;;;;5079685;28;20423;-86
2022/11/08 03:19:39;;;;;;;9.63;2.80;;;11.60;99.90;;;;;;5117969;28;20063;-85
2022/11/08 03:22:05;;;;;;;10.38;2.97;;;11.60;99.90;;;;;;5137512;28;20823;-84
2022/11/08 03:24:32;;;;;;;11.63;3.08;;;11.60;99.90;;;;;;5102606;28;20050;-85
2022/11/08 03:26:58;;;;;;;10.73;3.10;;;11.60;99.90;;;;;;5112941;28;20061;-85
2022/11/08 03:29:24;;;;;;;8.52;2.80;;;11.60;99.90;;;;;;5096292;28;20472;-86
2022/11/08 03:31:49;;;;;;;11.07;3.38;;;11.50;99.90;;;;;;5112678;28;20039;-85
2022/11/08 03:34:15;;;;;;;8.98;2.90;;;11.50;99.90;;;;;;5096239;28;20040;-86
2022/11/08 03:36:41;;;;;;;10.00;3.65;;;11.50;99.90;;;;;;5114854;28;20054;-86
2022/11/08 03:39:06;;;;;;;9.23;3.47;;;11.50;99.90;;;;;;5100358;28;20158;-85
2022/11/08 03:41:32;;;;;;;8.23;3.60;;;11.40;99.90;;;;;;5096924;28;20048;-85
2022/11/08 03:43:58;;;;;;;8.73;2.90;;;11.40;99.90;;;;;;5079243;28;20058;-85
2022/11/08 03:46:23;;;;;;;8.73;2.83;;;11.30;99.90;;;;;;5079357;28;20047;-86
2022/11/08 03:48:49;;;;;;;16.25;4.43;;;11.40;99.90;;;;;;5112409;28;20091;-85
2022/11/08 03:51:15;;;;;;;10.25;3.20;;;11.40;99.90;;;;;;5079086;28;20096;-86
2022/11/08 03:53:40;;;;;;;10.23;3.45;;;11.40;99.90;;;;;;5095281;28;20043;-86
2022/11/08 03:56:06;;;;;;;7.68;2.78;;;11.40;99.90;;;;;;5095019;28;20052;-85
2022/11/08 03:58:32;;;;;;;5.70;2.83;;;11.30;99.90;;;;;;5078272;28;20052;-86
2022/11/08 04:01:02;;;;;;;6.85;2.90;;;11.40;99.90;;;;;;5084082;28;20131;-86
2022/11/08 04:03:28;;;;;;;9.38;3.10;;;11.40;99.90;;;;;;5058415;28;20095;-85
2022/11/08 04:05:54;;;;;;;10.73;3.25;;;11.40;99.90;;;;;;5058253;28;20460;-85
2022/11/08 04:08:20;;;;;;;8.27;2.95;;;11.40;99.90;;;;;;5042410;28;20469;-86
2022/11/08 04:10:46;;;;;;;12.48;2.90;;;11.40;99.90;;;;;;5075741;28;20055;-86
2022/11/08 04:15:56;;;;;;;6.95;2.55;;;11.40;99.90;;;;;;5091553;28;20044;-86
2022/11/08 04:21:20;;;;;;;7.03;2.80;;;11.40;99.90;;;;;;5077068;28;20055;-85
2022/11/08 04:23:47;;;;;;;9.45;2.97;;;11.30;99.90;;;;;;5062487;28;20542;-85
2022/11/08 04:26:13;;;;;;;6.90;2.70;;;11.40;99.90;;;;;;5115133;28;20127;-84
2022/11/08 04:28:39;;;;;;;10.88;3.25;;;11.40;99.90;;;;;;5121083;28;20047;-85
2022/11/08 04:31:09;;;;;;;8.45;2.80;;;11.40;99.90;;;;;;5095431;28;20044;-86
2022/11/08 04:33:35;;;;;;;11.18;2.90;;;11.40;99.90;;;;;;5078817;28;20090;-85
2022/11/08 04:36:03;;;;;;;7.03;3.20;;;11.30;99.90;;;;;;5093830;28;20079;-86
2022/11/08 04:38:29;;;;;;;14.30;2.78;;;11.30;99.90;;;;;;5111100;28;20048;-85
2022/11/08 04:41:02;;;;;;;9.18;2.70;;;11.30;99.90;;;;;;5136424;28;20050;-85
2022/11/08 04:43:29;;;;;;;10.43;2.65;;;11.30;99.90;;;;;;5102429;28;20044;-86
2022/11/08 04:46:02;;;;;;;10.70;3.17;;;11.30;99.90;;;;;;5102971;28;20051;-85
2022/11/08 04:48:28;;;;;;;9.85;3.17;;;11.30;99.90;;;;;;5074559;28;20075;-86
2022/11/08 04:50:54;;;;;;;5.35;2.55;;;11.30;99.90;;;;;;5074795;28;20081;-86
2022/11/08 04:53:20;;;;;;;7.75;2.83;;;11.30;99.90;;;;;;5074052;28;20043;-85
2022/11/08 04:55:46;;;;;;;11.93;3.67;;;11.30;99.90;;;;;;5057822;28;20095;-86
2022/11/08 04:58:11;;;;;;;7.00;2.60;;;11.30;99.90;;;;;;5090927;28;20075;-85
2022/11/08 05:00:37;;;;;;;7.45;2.70;;;11.20;99.90;;;;;;5098189;28;20048;-84
2022/11/08 05:03:02;;;;;;;8.43;2.65;;;11.30;99.90;;;;;;5095395;28;20540;-86
2022/11/08 05:05:28;;;;;;;8.60;3.60;;;11.30;99.90;;;;;;5074429;28;20135;-85
2022/11/08 05:07:54;;;;;;;9.70;3.20;;;11.20;99.90;;;;;;5063958;28;20048;-85
2022/11/08 05:10:19;;;;;;;7.07;2.40;;;11.10;99.90;;;;;;5076672;28;20138;-85
2022/11/08 05:12:48;;;;;;;8.07;2.47;;;11.20;99.90;;;;;;5074848;28;20388;-85
2022/11/08 05:15:14;;;;;;;7.15;2.90;;;11.10;99.90;;;;;;5075542;28;20113;-86
2022/11/08 05:17:40;;;;;;;10.73;3.05;;;11.10;99.90;;;;;;5058122;28;20094;-85
2022/11/08 05:25:39;;;;;;;5.53;2.60;;;11.00;99.90;;;;;;5091418;28;20014;-85
2022/11/08 05:28:04;;;;;;;6.32;2.72;;;11.00;99.90;;;;;;5074122;28;20086;-86
2022/11/08 05:30:30;;;;;;;12.98;2.90;;;11.00;99.90;;;;;;5091074;28;20052;-86
2022/11/08 05:32:55;;;;;;;7.20;2.72;;;11.00;99.90;;;;;;5074352;28;20080;-85
2022/11/08 05:35:21;;;;;;;6.18;2.70;;;11.00;99.90;;;;;;5090547;28;20048;-85
2022/11/08 05:37:47;;;;;;;7.30;2.88;;;10.90;99.90;;;;;;5074032;28;20048;-86
2022/11/08 05:40:13;;;;;;;4.82;2.15;;;11.00;99.90;;;;;;5073667;28;20044;-85
2022/11/08 05:42:39;;;;;;;6.75;2.70;;;11.00;99.90;;;;;;5073761;28;20123;-85
2022/11/08 05:45:06;;;;;;;11.38;2.60;;;11.00;99.90;;;;;;5096153;28;20036;-85
2022/11/08 05:47:31;;;;;;;9.30;2.92;;;10.90;99.90;;;;;;5096425;28;20083;-85
2022/11/08 05:49:57;;;;;;;7.00;2.65;;;10.90;99.90;;;;;;5078670;28;20090;-85
2022/11/08 05:52:22;;;;;;;5.30;2.30;;;10.80;99.90;;;;;;5097669;28;20044;-85
2022/11/08 05:54:48;;;;;;;8.23;2.70;;;10.80;99.90;;;;;;5066091;28;20044;-85
2022/11/08 05:57:14;;;;;;;7.47;2.60;;;10.80;99.90;;;;;;5101500;28;20040;-85
2022/11/08 05:59:39;;;;;;;9.27;2.70;;;10.80;99.90;;;;;;5102046;28;20063;-86
2022/11/08 06:02:05;;;;;;;9.68;3.10;;;10.80;99.90;;;;;;5114475;28;20040;-85
2022/11/08 06:04:31;;;;;;;7.55;2.70;;;10.80;99.90;;;;;;5061035;28;20056;-85
2022/11/08 06:06:56;;;;;;;6.20;2.70;;;10.70;99.90;;;;;;5077957;28;20048;-86
2022/11/08 06:09:22;;;;;;;7.20;3.03;;;10.80;99.90;;;;;;5094208;28;20048;-86
2022/11/08 06:11:48;;;;;;;5.05;2.70;;;10.70;99.90;;;;;;5094135;28;20044;-85
2022/11/08 06:14:13;;;;;;;4.70;2.53;;;10.70;99.90;;;;;;5093915;28;20040;-86
2022/11/08 06:16:39;;;;;;;10.50;3.80;;;10.70;99.90;;;;;;5077423;28;20048;-86
2022/11/08 06:19:04;;;;;;;7.25;2.92;;;10.70;99.90;;;;;;5077053;28;20036;-86
2022/11/08 06:21:30;;;;;;;9.75;3.00;;;10.60;99.90;;;;;;5093660;28;20047;-86
2022/11/08 06:23:56;;;;;;;9.45;2.90;;;10.70;99.90;;;;;;5060415;28;20043;-86
2022/11/08 06:26:22;;;;;;;7.80;3.22;;;10.70;99.90;;;;;;5093564;28;20044;-86
2022/11/08 06:28:48;;;;;;;9.20;2.72;;;10.70;99.90;;;;;;5076936;28;20556;-86
2022/11/08 06:31:13;;;;;;;8.57;3.10;;;10.60;99.90;;;;;;5077047;28;20127;-86
2022/11/08 06:33:39;;;;;;;8.50;3.15;;;10.60;99.90;;;;;;5094041;28;20499;-85
2022/11/08 06:36:05;;;;;;;8.98;3.30;;;10.60;99.90;;;;;;5060416;28;20392;-85
2022/11/08 06:38:31;;;;;;;8.52;3.17;;;10.60;99.90;;;;;;5076317;28;20040;-85
2022/11/08 06:41:00;;;;;;;7.32;3.17;;;10.60;99.90;;;;;;5076722;28;20099;-86
2022/11/08 06:43:26;;;;;;;10.80;3.88;;;10.60;99.90;;;;;;5076723;28;20048;-86
2022/11/08 06:45:51;;;;;;;11.07;3.03;;;10.60;99.90;;;;;;5077402;28;20047;-86
2022/11/08 06:48:17;;;;;;;9.57;3.10;;;10.60;99.90;;;;;;5093419;28;20514;-85
2022/11/08 06:50:43;;;;;;;8.18;3.28;;;10.70;99.90;;;;;;5093188;28;20044;-85
2022/11/08 06:53:11;;;;;;;5.32;2.92;;;10.80;99.90;;;;;;5093271;28;20044;-86
2022/11/08 06:55:36;;;;;;;6.88;2.90;;;10.80;99.90;;;;;;5078296;28;20048;-86
2022/11/08 06:58:02;;;;;;;7.50;3.15;;;10.80;99.90;;;;;;5079244;28;20067;-85
2022/11/08 07:00:28;;;;;;;7.07;2.75;;;10.90;99.90;;;;;;5061831;28;20066;-86
2022/11/08 07:03:02;;;;;;;6.63;3.40;;;10.90;99.90;;;;;;5089238;28;20047;-85
2022/11/08 07:05:28;;;;;;;9.27;3.22;;;11.00;99.90;;;;;;5102965;28;20051;-85
2022/11/08 07:07:56;;;;;;;8.45;3.05;;;11.10;99.90;;;;;;5083360;28;20059;-86
2022/11/08 07:10:23;;;;;;;10.20;3.50;;;11.10;99.90;;;;;;5079191;28;20097;-85
2022/11/08 07:12:59;;;;;;;4.95;2.58;;;11.10;99.90;;;;;;5090523;28;20083;-85
2022/11/08 07:15:25;;;;;;;4.18;2.60;;;11.20;99.90;;;;;;5105064;28;20024;-85
2022/11/08 07:17:52;;;;;;;12.40;4.00;;;11.30;99.90;;;;;;5103382;28;20026;-85
2022/11/08 07:20:18;;;;;;;10.05;3.20;;;11.30;99.90;;;;;;5107026;28;20170;-85
2022/11/08 07:22:43;;;;;;;6.15;2.80;;;11.40;99.90;;;;;;5062992;28;20091;-85
2022/11/08 07:25:09;;;;;;;6.90;2.80;;;11.40;99.90;;;;;;5079159;28;20055;-85
2022/11/08 07:27:35;;;;;;;7.22;2.75;;;11.50;99.90;;;;;;5095833;28;20077;-87
2022/11/08 07:30:00;;;;;;;5.35;2.72;;;11.50;99.90;;;;;;5079024;28;20134;-85
2022/11/08 07:32:26;;;;;;;7.68;2.80;;;11.50;99.90;;;;;;5078750;28;20085;-85
2022/11/08 07:34:51;;;;;;;5.70;2.33;;;11.50;99.90;;;;;;5078693;28;20047;-85
2022/11/08 07:37:17;;;;;;;5.65;2.92;;;11.50;99.90;;;;;;5078097;28;20050;-84
2022/11/08 07:39:43;;;;;;;7.10;2.80;;;11.60;99.90;;;;;;5095162;28;20051;-86
2022/11/08 07:42:08;;;;;;;12.20;3.20;;;11.60;99.90;;;;;;5078816;28;20043;-85
2022/11/08 07:44:34;;;;;;;9.43;2.55;;;11.70;99.90;;;;;;5095345;28;20055;-85
2022/11/08 07:47:00;;;;;;;6.60;2.35;;;11.70;99.90;;;;;;5078693;28;20040;-85
2022/11/08 07:49:26;;;;;;;4.78;2.42;;;11.70;99.90;;;;;;5095218;28;20104;-85
2022/11/08 07:51:51;;;;;;;6.22;3.03;;;11.70;99.90;;;;;;5078419;28;20044;-85
2022/11/08 07:54:17;;;;;;;7.38;2.63;;;11.70;99.90;;;;;;5095506;28;20074;-85
2022/11/08 07:56:43;;;;;;;5.82;2.25;;;11.70;99.90;;;;;;5078217;28;20077;-85
2022/11/08 07:59:08;;;;;;;5.28;2.30;;;11.70;99.90;;;;;;5078006;28;20051;-86
2022/11/08 08:01:34;;;;;;;7.35;2.55;;;11.90;99.90;;;;;;5078017;28;20381;-85
2022/11/08 08:04:00;;;;;;;6.88;2.53;;;11.80;99.90;;;;;;5082564;28;20047;-85
2022/11/08 08:06:26;;;;;;;7.90;2.55;;;11.90;99.90;;;;;;5083653;28;20097;-86
2022/11/08 08:08:51;;;;;;;8.23;2.33;;;11.90;99.90;;;;;;5095076;28;20475;-84
2022/11/08 08:11:18;;;;;;;3.83;2.40;;;12.00;99.90;;;;;;5082914;28;20056;-85
2022/11/08 08:13:43;;;;;;;6.13;2.13;;;12.10;99.90;;;;;;5101214;27;20050;-85
2022/11/08 08:16:09;;;;;;;4.93;2.33;;;12.10;99.90;;;;;;5086056;28;20039;-83
2022/11/08 08:18:35;;;;;;;3.42;2.30;;;12.20;99.90;;;;;;5069049;28;20039;-85
2022/11/08 08:21:00;;;;;;;4.32;2.05;;;12.30;99.90;;;;;;5107586;27;20375;-83
2022/11/08 08:23:26;;;;;;;3.33;1.80;;;12.40;99.90;;;;;;5110703;27;20048;-84
2022/11/08 08:25:52;;;;;;;3.05;1.92;;;12.80;99.90;;;;;;5104550;27;20039;-85
2022/11/08 08:28:17;;;;;;;3.65;2.28;;;12.60;99.90;;;;;;5070374;27;20053;-86
2022/11/08 08:30:43;;;;;;;5.20;2.30;;;12.70;99.90;;;;;;5104991;27;20061;-84
2022/11/08 08:33:13;;;;;;;3.20;2.10;;;12.70;99.90;;;;;;5107970;28;20016;-85
2022/11/08 08:35:39;;;;;;;4.55;2.03;;;12.70;99.90;;;;;;5095473;27;20031;-84
2022/11/08 08:38:05;;;;;;;4.43;2.10;;;12.90;99.90;;;;;;5091977;27;20044;-85
2022/11/08 08:40:31;;;;;;;3.85;2.00;;;13.00;99.90;;;;;;5067537;27;20100;-85
2022/11/08 08:42:58;;;;;;;5.85;2.30;;;13.20;99.90;;;;;;5087659;28;20483;-84
2022/11/08 08:45:24;;;;;;;3.70;2.15;;;13.40;99.90;;;;;;5070739;28;20562;-86
2022/11/08 08:47:52;;;;;;;6.63;2.00;;;13.40;99.90;;;;;;5085658;28;20039;-85
2022/11/08 08:50:17;;;;;;;5.40;2.08;;;13.50;99.90;;;;;;5070487;28;20048;-84
2022/11/08 08:52:43;;;;;;;3.97;1.75;;;13.60;99.90;;;;;;5086530;28;20185;-83
2022/11/08 08:55:09;;;;;;;4.57;2.20;;;13.70;99.90;;;;;;5105307;28;20046;-85
2022/11/08 08:57:34;;;;;;;5.63;1.88;;;13.60;99.90;;;;;;5038100;28;20052;-84
2022/11/08 09:00:00;;;;;;;2.75;1.80;;;13.60;99.90;;;;;;5082802;28;20052;-84
2022/11/08 09:02:26;;;;;;;2.40;2.00;;;13.70;99.90;;;;;;5051402;28;20044;-84
2022/11/08 09:04:51;;;;;;;3.65;1.70;;;13.60;99.90;;;;;;5082981;28;20046;-82
2022/11/08 09:07:17;;;;;;;6.47;2.55;;;13.70;99.90;;;;;;5066211;28;20043;-84
2022/11/08 09:09:43;;;;;;;4.38;1.98;;;13.80;99.90;;;;;;5049662;28;20047;-83
2022/11/08 09:12:08;;;;;;;2.65;1.83;;;13.70;99.90;;;;;;5067051;28;20048;-83
2022/11/08 09:14:34;;;;;;;6.47;1.90;;;13.80;99.90;;;;;;5083632;28;20052;-83
2022/11/08 09:17:00;;;;;;;3.92;1.75;;;13.90;99.90;;;;;;5080662;28;20119;-84
2022/11/08 09:19:25;;;;;;;4.45;1.70;;;13.90;99.90;;;;;;5083096;28;20044;-85
2022/11/08 09:21:51;;;;;;;5.53;2.00;;;13.90;99.90;;;;;;5085602;28;20047;-84
2022/11/08 09:24:17;;;;;;;3.83;1.90;;;14.00;99.90;;;;;;5099270;28;20461;-84
2022/11/08 09:26:43;;;;;;;5.22;1.90;;;14.00;99.90;;;;;;5056636;28;20126;-85
2022/11/08 09:29:08;;;;;;;4.25;2.10;;;14.00;99.90;;;;;;5071850;28;20055;-84
2022/11/08 09:31:34;;;;;;;4.97;1.52;;;14.10;99.90;;;;;;5061297;28;20044;-82
2022/11/08 09:34:00;;;;;;;4.68;2.67;;;14.20;99.90;;;;;;5097846;28;20458;-83
2022/11/08 09:36:25;;;;;;;3.53;1.55;;;14.20;99.90;;;;;;5081203;28;20361;-83
2022/11/08 09:38:52;;;;;;;4.15;1.85;;;14.20;99.90;;;;;;5097303;28;20472;-84
2022/11/08 09:41:30;;;;;;;3.88;1.80;;;14.40;99.90;;;;;;5098817;28;20062;-83
2022/11/08 09:44:17;;;;;;;2.90;1.70;;;14.60;99.90;;;;;;5105110;28;20044;-83
2022/11/08 09:46:57;;;;;;;5.10;1.67;;;14.60;99.90;;;;;;5094135;28;20027;-86
2022/11/08 09:49:25;;;;;;;2.70;1.50;;;14.60;99.90;;;;;;5089732;27;20087;-85
2022/11/08 09:51:50;;;;;;;4.15;1.50;;;14.80;99.90;;;;;;5077659;28;20072;-83
2022/11/08 09:54:24;;;;;;;2.70;1.98;;;14.80;99.90;;;;;;5062648;28;20040;-85
2022/11/08 09:56:51;;;;;;;;;;;14.70;99.90;;;;;;5047083;28;20183;-84
2022/11/08 09:59:37;;;;;;;2.95;1.88;;;14.60;99.90;;;;;;5073456;28;20002;-84
2022/11/08 10:02:07;;;;;;;3.20;1.52;;;14.60;99.90;;;;;;5073726;28;20138;-86
2022/11/08 10:04:33;;;;;;;2.38;1.70;;;14.60;99.90;;;;;;5063450;28;20044;-84
2022/11/08 10:07:18;;;;;;;2.00;1.50;;;14.60;99.90;;;;;;5045937;28;20059;-85
2022/11/08 10:09:53;;;;;;;;;;;14.70;99.90;;;;;;5079721;28;20076;-84
2022/11/08 10:12:20;;;;;;;;;;;14.60;99.90;;;;;;5079644;28;19923;-84
2022/11/08 10:15:30;;;;;;;2.97;2.03;;;14.60;99.90;;;;;;5079485;28;19923;-85
2022/11/08 10:18:35;;;;;;;2.80;1.50;;;14.70;99.90;;;;;;5049317;28;20322;-85
2022/11/08 10:21:02;;;;;;;4.63;1.83;;;14.70;99.90;;;;;;5082711;28;20064;-86
2022/11/08 10:24:01;;;;;;;2.47;1.67;;;14.70;99.90;;;;;;5080276;28;20051;-85
2022/11/08 10:26:49;;;;;;;3.75;1.83;;;14.70;99.90;;;;;;5079033;28;20055;-84
2022/11/08 10:29:22;;;;;;;3.00;1.85;;;14.60;99.90;;;;;;5081364;28;20139;-85
2022/11/08 10:31:55;;;;;;;2.22;1.83;;;14.60;99.90;;;;;;5095631;28;20050;-84
2022/11/08 10:34:23;;;;;;;3.58;2.05;;;14.80;99.90;;;;;;5077674;28;20437;-84
2022/11/08 10:36:53;;;;;;;3.55;2.03;;;14.70;99.90;;;;;;5062316;28;20132;-84
2022/11/08 10:39:29;;;;;;;5.53;1.92;;;14.80;99.90;;;;;;5062726;28;20039;-84
2022/11/08 10:42:05;;;;;;;5.05;2.20;;;14.70;99.90;;;;;;5061828;28;20492;-86
2022/11/08 10:44:31;;;;;;;3.33;2.28;;;14.80;99.90;;;;;;5063786;28;20058;-85
2022/11/08 10:47:01;;;;;;;3.08;1.60;;;14.80;99.90;;;;;;5081675;28;20043;-84
2022/11/08 10:49:34;;;;;;;3.28;2.30;;;14.90;99.90;;;;;;5099577;28;20552;-85
2022/11/08 10:52:18;;;;;;;3.60;2.00;;;14.90;99.90;;;;;;5083268;28;20158;-85
2022/11/08 10:54:55;;;;;;;3.13;1.80;;;14.80;99.90;;;;;;5083122;28;20407;-84
2022/11/08 10:57:26;;;;;;;4.93;2.05;;;14.70;99.90;;;;;;5014349;28;1122210;-85
2022/11/08 10:59:52;;;;;;;2.78;1.63;;;14.60;99.90;;;;;;5090554;28;20052;-83
2022/11/08 11:02:37;;;;;;;3.10;2.10;;;14.60;99.90;;;;;;5057677;28;20075;-83
2022/11/08 11:05:15;;;;;;;5.68;2.15;;;14.50;99.90;;;;;;5100924;28;20073;-83
2022/11/08 11:07:44;;;;;;;3.50;1.60;;;14.50;99.90;;;;;;5101051;28;20028;-83
2022/11/08 11:10:25;;;;;;;5.20;2.17;;;14.50;99.90;;;;;;5082317;28;20052;-84
2022/11/08 11:13:01;;;;;;;3.42;1.90;;;14.40;99.90;;;;;;5096630;28;20106;-83
2022/11/08 11:15:36;;;;;;;2.78;1.80;;;14.30;99.90;;;;;;5081149;28;20047;-84
2022/11/08 11:18:02;;;;;;;4.43;2.10;;;14.20;99.90;;;;;;5096098;28;20154;-87
2022/11/08 11:20:28;;;;;;;3.65;1.70;;;14.30;99.90;;;;;;5080241;28;20047;-83
2022/11/08 11:22:53;;;;;;;4.30;2.00;;;14.20;99.90;;;;;;5079052;28;20116;-84
2022/11/08 11:25:23;;;;;;;4.72;1.83;;;14.30;99.90;;;;;;5062700;28;20047;-84
2022/11/08 11:28:11;;;;;;;2.92;1.98;;;14.40;99.90;;;;;;5078992;28;20086;-84
2022/11/08 11:30:40;;;;;;;4.32;1.80;;;14.50;99.90;;;;;;5046237;28;20484;-83
2022/11/08 11:33:22;;;;;;;2.80;1.70;;;14.60;99.90;;;;;;5058121;28;20039;-85
2022/11/08 11:35:53;;;;;;;3.35;1.70;;;14.60;99.90;;;;;;5047138;28;20063;-84
2022/11/08 11:38:43;;;;;;;4.70;1.88;;;14.70;99.90;;;;;;5028156;28;20488;-84
2022/11/08 11:41:15;;;;;;;4.07;1.60;;;14.80;99.90;;;;;;5043030;28;20048;-85
2022/11/08 11:43:46;;;;;;;3.30;1.65;;;14.80;99.90;;;;;;5073348;28;20108;-86
2022/11/08 11:46:16;;;;;;;3.95;1.75;;;14.80;99.90;;;;;;5044872;28;20663;-85
2022/11/08 11:48:47;;;;;;;5.05;1.83;;;15.00;99.90;;;;;;5061776;28;20047;-86
2022/11/08 11:51:13;;;;;;;7.20;1.92;;;15.00;99.90;;;;;;5062181;28;20105;-84
2022/11/08 11:53:40;;;;;;;7.82;2.03;;;15.00;99.90;;;;;;5059719;28;20494;-85
2022/11/08 11:56:39;;;;;;;2.70;1.90;;;15.00;99.90;;;;;;5073790;28;20134;-84
2022/11/08 11:59:20;;;;;;;4.55;1.90;;;15.00;99.90;;;;;;5074506;28;20044;-84
2022/11/08 12:02:05;;;;;;;3.00;1.80;;;15.00;99.90;;;;;;5058607;28;20048;-84
2022/11/08 12:04:50;;;;;;;;;;;15.00;99.90;;;;;;5075718;28;20070;-85
2022/11/08 12:07:26;;;;;;;;;;;15.10;99.90;;;;;;5058861;28;19920;-84
2022/11/08 12:10:25;;;;;;;6.93;1.92;;;15.10;99.90;;;;;;5044655;28;19920;-83
2022/11/08 12:13:03;;;;;;;2.67;1.50;;;15.10;99.90;;;;;;5057318;28;20044;-85
2022/11/08 12:15:37;;;;;;;5.18;1.52;;;15.20;99.90;;;;;;5053858;28;20055;-85
2022/11/08 12:18:09;;;;;;;5.13;1.60;;;15.20;99.90;;;;;;5060918;28;20061;-86
2022/11/08 12:21:09;;;;;;;2.67;1.85;;;15.20;99.90;;;;;;5103703;28;20029;-85
2022/11/08 12:23:52;;;;;;;7.55;1.80;;;15.30;99.90;;;;;;5098905;28;20130;-84
2022/11/08 12:26:34;;;;;;;4.47;2.40;;;15.30;99.90;;;;;;5080222;28;20066;-84
2022/11/08 12:29:23;;;;;;;3.60;1.63;;;15.40;99.90;;;;;;5094732;28;20063;-86
2022/11/08 12:32:01;;;;;;;6.30;1.92;;;15.40;99.90;;;;;;5043839;28;20134;-86
2022/11/08 12:35:04;;;;;;;2.10;1.50;;;15.30;99.90;;;;;;5041429;28;20051;-87
2022/11/08 12:37:39;;;;;;;2.95;1.77;;;15.30;99.90;;;;;;5074799;28;20150;-86
2022/11/08 12:40:15;;;;;;;4.18;1.90;;;15.30;99.90;;;;;;5041194;28;20044;-86
2022/11/08 12:42:50;;;;;;;2.85;1.77;;;15.30;99.90;;;;;;5057625;28;20067;-85
2022/11/08 12:45:26;;;;;;;2.83;1.75;;;15.10;99.90;;;;;;5075016;28;20075;-85
2022/11/08 12:47:54;;;;;;;4.55;1.88;;;15.30;99.90;;;;;;5057866;28;20052;-86
2022/11/08 12:50:33;;;;;;;4.38;2.00;;;15.20;99.90;;;;;;5057511;28;20090;-84
2022/11/08 12:53:10;;;;;;;4.20;2.00;;;15.10;99.90;;;;;;5040733;28;20052;-85
2022/11/08 12:55:36;;;;;;;6.22;1.83;;;15.00;99.90;;;;;;5058403;28;20395;-85
2022/11/08 12:58:20;;;;;;;3.30;2.10;;;15.00;99.90;;;;;;5072965;28;20044;-85
2022/11/08 13:00:45;;;;;;;4.10;1.65;;;15.00;99.90;;;;;;5043130;28;20094;-85
2022/11/08 13:03:40;;;;;;;3.40;1.70;;;15.00;99.90;;;;;;5040775;28;20077;-86
2022/11/08 13:06:11;;;;;;;3.58;1.60;;;15.00;99.90;;;;;;4985362;28;20057;-85
2022/11/08 13:09:15;;;;;;;4.05;1.63;;;15.10;99.90;;;;;;5041879;28;20131;-87
2022/11/08 13:11:45;;;;;;;5.25;1.98;;;15.10;99.90;;;;;;5057558;28;20051;-85
2022/11/08 13:14:13;;;;;;;3.58;1.70;;;15.00;99.90;;;;;;5057527;28;20058;-86
2022/11/08 13:16:40;;;;;;;3.55;1.88;;;15.00;99.90;;;;;;5041053;28;20052;-86